Terminal Aerodrome Forecast
Issued by NWS

Home | Current Version | Previous Version | Text Only | Print | Product List | Glossary On
Versions: 1 2 3 4 5 6 7 8 9 10 11 12 13 14 15 16 17 18 19 20 21
000
FTUS43 KSGF 171720
TAFJLN
TAF
KJLN 171720Z 1718/1818 21013KT P6SM SKC
     FM172300 19012KT P6SM SCT200
     FM181400 18006KT P6SM OVC070
     FM181600 20008KT P6SM OVC025=

USA.gov is the U.S. government's official web portal to all federal, state and local government web resources and services.